sensor_id;sensor_type;location;lat;lon;timestamp;P1;durP1;ratioP1;P2;durP2;ratioP2
80209;SDS011;69529;37.974;23.708;2023-04-26T00:01:39;3.40;;;2.40;;
80209;SDS011;69529;37.974;23.708;2023-04-26T00:04:07;3.98;;;2.55;;
80209;SDS011;69529;37.974;23.708;2023-04-26T00:06:35;4.60;;;2.83;;
80209;SDS011;69529;37.974;23.708;2023-04-26T00:09:03;3.45;;;2.40;;
80209;SDS011;69529;37.974;23.708;2023-04-26T00:11:31;4.70;;;2.72;;
80209;SDS011;69529;37.974;23.708;2023-04-26T00:13:59;3.25;;;2.33;;
80209;SDS011;69529;37.974;23.708;2023-04-26T00:16:26;5.42;;;2.60;;
80209;SDS011;69529;37.974;23.708;2023-04-26T00:18:54;5.00;;;2.67;;
80209;SDS011;69529;37.974;23.708;2023-04-26T00:21:22;4.75;;;2.47;;
80209;SDS011;69529;37.974;23.708;2023-04-26T00:23:49;3.12;;;2.60;;
80209;SDS011;69529;37.974;23.708;2023-04-26T00:26:17;3.67;;;2.25;;
80209;SDS011;69529;37.974;23.708;2023-04-26T00:28:46;3.62;;;2.45;;
80209;SDS011;69529;37.974;23.708;2023-04-26T00:31:14;4.20;;;2.72;;
80209;SDS011;69529;37.974;23.708;2023-04-26T00:33:42;5.45;;;2.70;;
80209;SDS011;69529;37.974;23.708;2023-04-26T00:36:11;2.83;;;2.45;;
80209;SDS011;69529;37.974;23.708;2023-04-26T00:38:40;3.65;;;2.22;;
80209;SDS011;69529;37.974;23.708;2023-04-26T00:41:07;4.37;;;2.87;;
80209;SDS011;69529;37.974;23.708;2023-04-26T00:43:35;4.62;;;2.50;;
80209;SDS011;69529;37.974;23.708;2023-04-26T00:46:04;4.47;;;2.45;;
80209;SDS011;69529;37.974;23.708;2023-04-26T00:48:35;6.45;;;2.62;;
80209;SDS011;69529;37.974;23.708;2023-04-26T00:51:03;4.92;;;2.72;;
80209;SDS011;69529;37.974;23.708;2023-04-26T00:53:32;4.33;;;2.70;;
80209;SDS011;69529;37.974;23.708;2023-04-26T00:56:00;5.00;;;2.90;;
80209;SDS011;69529;37.974;23.708;2023-04-26T00:58:28;4.45;;;2.65;;
80209;SDS011;69529;37.974;23.708;2023-04-26T01:00:56;4.30;;;2.80;;
80209;SDS011;69529;37.974;23.708;2023-04-26T01:03:24;4.55;;;2.80;;
80209;SDS011;69529;37.974;23.708;2023-04-26T01:05:53;4.95;;;2.60;;
80209;SDS011;69529;37.974;23.708;2023-04-26T01:08:21;5.42;;;2.87;;
80209;SDS011;69529;37.974;23.708;2023-04-26T01:10:51;4.83;;;2.83;;
80209;SDS011;69529;37.974;23.708;2023-04-26T01:13:19;4.87;;;2.98;;
80209;SDS011;69529;37.974;23.708;2023-04-26T01:15:47;3.98;;;2.58;;
80209;SDS011;69529;37.974;23.708;2023-04-26T01:18:15;4.70;;;2.60;;
80209;SDS011;69529;37.974;23.708;2023-04-26T01:20:42;5.08;;;2.70;;
80209;SDS011;69529;37.974;23.708;2023-04-26T01:23:11;3.80;;;2.62;;
80209;SDS011;69529;37.974;23.708;2023-04-26T01:25:39;3.80;;;2.40;;
80209;SDS011;69529;37.974;23.708;2023-04-26T01:28:07;5.47;;;2.37;;
80209;SDS011;69529;37.974;23.708;2023-04-26T01:30:35;5.08;;;2.87;;
80209;SDS011;69529;37.974;23.708;2023-04-26T01:33:02;4.78;;;2.60;;
80209;SDS011;69529;37.974;23.708;2023-04-26T01:35:30;3.87;;;2.58;;
80209;SDS011;69529;37.974;23.708;2023-04-26T01:37:58;6.53;;;3.08;;
80209;SDS011;69529;37.974;23.708;2023-04-26T01:40:26;5.72;;;2.75;;
80209;SDS011;69529;37.974;23.708;2023-04-26T01:42:53;4.83;;;2.75;;
80209;SDS011;69529;37.974;23.708;2023-04-26T01:45:21;4.62;;;2.60;;
80209;SDS011;69529;37.974;23.708;2023-04-26T01:47:49;3.95;;;2.52;;
80209;SDS011;69529;37.974;23.708;2023-04-26T01:50:17;5.58;;;2.83;;
80209;SDS011;69529;37.974;23.708;2023-04-26T01:52:44;4.30;;;2.55;;
80209;SDS011;69529;37.974;23.708;2023-04-26T01:55:12;3.40;;;2.60;;
80209;SDS011;69529;37.974;23.708;2023-04-26T01:57:40;5.22;;;2.80;;
80209;SDS011;69529;37.974;23.708;2023-04-26T02:00:08;3.95;;;3.00;;
80209;SDS011;69529;37.974;23.708;2023-04-26T02:02:36;3.52;;;2.83;;
80209;SDS011;69529;37.974;23.708;2023-04-26T02:05:04;4.90;;;2.80;;
80209;SDS011;69529;37.974;23.708;2023-04-26T02:07:31;6.45;;;3.05;;
80209;SDS011;69529;37.974;23.708;2023-04-26T02:09:59;4.42;;;2.60;;
80209;SDS011;69529;37.974;23.708;2023-04-26T02:12:28;3.95;;;2.70;;
80209;SDS011;69529;37.974;23.708;2023-04-26T02:14:55;4.33;;;2.83;;
80209;SDS011;69529;37.974;23.708;2023-04-26T02:17:24;5.40;;;2.77;;
80209;SDS011;69529;37.974;23.708;2023-04-26T02:19:54;6.35;;;2.90;;
80209;SDS011;69529;37.974;23.708;2023-04-26T02:22:22;4.85;;;2.95;;
80209;SDS011;69529;37.974;23.708;2023-04-26T02:24:50;4.60;;;2.58;;
80209;SDS011;69529;37.974;23.708;2023-04-26T02:27:18;2.77;;;2.50;;
80209;SDS011;69529;37.974;23.708;2023-04-26T02:29:46;4.22;;;2.67;;
80209;SDS011;69529;37.974;23.708;2023-04-26T02:32:13;4.25;;;2.77;;
80209;SDS011;69529;37.974;23.708;2023-04-26T02:34:41;6.17;;;2.95;;
80209;SDS011;69529;37.974;23.708;2023-04-26T02:37:10;4.85;;;2.90;;
80209;SDS011;69529;37.974;23.708;2023-04-26T02:39:37;4.00;;;2.65;;
80209;SDS011;69529;37.974;23.708;2023-04-26T02:42:08;3.00;;;2.27;;
80209;SDS011;69529;37.974;23.708;2023-04-26T02:44:36;5.28;;;2.92;;
80209;SDS011;69529;37.974;23.708;2023-04-26T02:47:04;4.67;;;2.90;;
80209;SDS011;69529;37.974;23.708;2023-04-26T02:49:32;4.58;;;2.90;;
80209;SDS011;69529;37.974;23.708;2023-04-26T02:52:00;6.37;;;3.00;;
80209;SDS011;69529;37.974;23.708;2023-04-26T02:54:27;5.10;;;3.20;;
80209;SDS011;69529;37.974;23.708;2023-04-26T02:56:55;7.20;;;3.17;;
80209;SDS011;69529;37.974;23.708;2023-04-26T02:59:23;5.60;;;2.92;;
80209;SDS011;69529;37.974;23.708;2023-04-26T03:01:51;8.18;;;3.33;;
80209;SDS011;69529;37.974;23.708;2023-04-26T03:04:18;5.42;;;3.00;;
80209;SDS011;69529;37.974;23.708;2023-04-26T03:06:46;6.17;;;2.45;;
80209;SDS011;69529;37.974;23.708;2023-04-26T03:09:14;4.90;;;2.70;;
80209;SDS011;69529;37.974;23.708;2023-04-26T03:11:42;5.22;;;2.65;;
80209;SDS011;69529;37.974;23.708;2023-04-26T03:14:10;6.17;;;2.80;;
80209;SDS011;69529;37.974;23.708;2023-04-26T03:16:41;8.85;;;3.20;;
80209;SDS011;69529;37.974;23.708;2023-04-26T03:19:09;6.05;;;3.02;;
80209;SDS011;69529;37.974;23.708;2023-04-26T03:21:37;6.60;;;3.00;;
80209;SDS011;69529;37.974;23.708;2023-04-26T03:24:05;6.40;;;2.67;;
80209;SDS011;69529;37.974;23.708;2023-04-26T03:26:32;11.30;;;3.22;;
80209;SDS011;69529;37.974;23.708;2023-04-26T03:29:00;12.25;;;3.98;;
80209;SDS011;69529;37.974;23.708;2023-04-26T03:31:29;17.82;;;3.77;;
80209;SDS011;69529;37.974;23.708;2023-04-26T03:33:57;13.38;;;3.77;;
80209;SDS011;69529;37.974;23.708;2023-04-26T03:36:25;11.45;;;3.45;;
80209;SDS011;69529;37.974;23.708;2023-04-26T03:38:54;12.70;;;3.30;;
80209;SDS011;69529;37.974;23.708;2023-04-26T03:41:22;8.75;;;3.00;;
80209;SDS011;69529;37.974;23.708;2023-04-26T03:43:50;9.63;;;3.58;;
80209;SDS011;69529;37.974;23.708;2023-04-26T03:46:18;12.68;;;3.33;;
80209;SDS011;69529;37.974;23.708;2023-04-26T03:48:45;17.05;;;4.10;;
80209;SDS011;69529;37.974;23.708;2023-04-26T03:51:13;10.35;;;3.65;;
80209;SDS011;69529;37.974;23.708;2023-04-26T03:53:41;12.00;;;3.50;;
80209;SDS011;69529;37.974;23.708;2023-04-26T03:56:10;19.50;;;3.77;;
80209;SDS011;69529;37.974;23.708;2023-04-26T03:58:38;15.15;;;3.22;;
80209;SDS011;69529;37.974;23.708;2023-04-26T04:01:06;13.45;;;3.60;;
80209;SDS011;69529;37.974;23.708;2023-04-26T04:03:37;13.62;;;3.75;;
80209;SDS011;69529;37.974;23.708;2023-04-26T04:06:05;12.30;;;3.83;;
80209;SDS011;69529;37.974;23.708;2023-04-26T04:08:32;14.25;;;3.42;;
80209;SDS011;69529;37.974;23.708;2023-04-26T04:11:00;15.13;;;3.20;;
80209;SDS011;69529;37.974;23.708;2023-04-26T04:13:28;13.35;;;3.50;;
80209;SDS011;69529;37.974;23.708;2023-04-26T04:15:56;13.98;;;3.20;;
80209;SDS011;69529;37.974;23.708;2023-04-26T04:18:23;12.43;;;3.58;;
80209;SDS011;69529;37.974;23.708;2023-04-26T04:20:51;13.38;;;3.55;;
80209;SDS011;69529;37.974;23.708;2023-04-26T04:23:19;18.15;;;3.90;;
80209;SDS011;69529;37.974;23.708;2023-04-26T04:25:46;11.70;;;3.22;;
80209;SDS011;69529;37.974;23.708;2023-04-26T04:28:16;14.87;;;3.27;;
80209;SDS011;69529;37.974;23.708;2023-04-26T04:30:44;13.35;;;3.40;;
80209;SDS011;69529;37.974;23.708;2023-04-26T04:33:12;10.95;;;3.55;;
80209;SDS011;69529;37.974;23.708;2023-04-26T04:35:41;9.88;;;3.65;;
80209;SDS011;69529;37.974;23.708;2023-04-26T04:38:09;12.95;;;3.30;;
80209;SDS011;69529;37.974;23.708;2023-04-26T04:40:38;12.63;;;3.40;;
80209;SDS011;69529;37.974;23.708;2023-04-26T04:43:06;11.40;;;3.40;;
80209;SDS011;69529;37.974;23.708;2023-04-26T04:45:33;12.00;;;3.70;;
80209;SDS011;69529;37.974;23.708;2023-04-26T04:48:03;8.28;;;3.58;;
80209;SDS011;69529;37.974;23.708;2023-04-26T04:50:30;9.48;;;3.50;;
80209;SDS011;69529;37.974;23.708;2023-04-26T04:52:58;12.85;;;4.08;;
80209;SDS011;69529;37.974;23.708;2023-04-26T04:55:26;10.55;;;3.58;;
80209;SDS011;69529;37.974;23.708;2023-04-26T05:00:25;9.93;;;3.20;;
80209;SDS011;69529;37.974;23.708;2023-04-26T05:02:53;10.20;;;3.80;;
80209;SDS011;69529;37.974;23.708;2023-04-26T05:05:21;7.22;;;3.70;;
80209;SDS011;69529;37.974;23.708;2023-04-26T05:07:49;9.03;;;3.80;;
80209;SDS011;69529;37.974;23.708;2023-04-26T05:10:17;10.32;;;5.22;;
80209;SDS011;69529;37.974;23.708;2023-04-26T05:12:44;10.93;;;5.62;;
80209;SDS011;69529;37.974;23.708;2023-04-26T05:15:12;11.25;;;5.53;;
80209;SDS011;69529;37.974;23.708;2023-04-26T05:17:40;9.33;;;5.50;;
80209;SDS011;69529;37.974;23.708;2023-04-26T05:20:08;13.65;;;6.92;;
80209;SDS011;69529;37.974;23.708;2023-04-26T05:22:38;13.32;;;9.58;;
80209;SDS011;69529;37.974;23.708;2023-04-26T05:25:06;18.87;;;11.63;;
80209;SDS011;69529;37.974;23.708;2023-04-26T05:27:35;20.50;;;14.07;;
80209;SDS011;69529;37.974;23.708;2023-04-26T05:30:06;18.30;;;13.03;;
80209;SDS011;69529;37.974;23.708;2023-04-26T05:35:01;14.93;;;10.13;;
80209;SDS011;69529;37.974;23.708;2023-04-26T05:37:29;11.93;;;8.43;;
80209;SDS011;69529;37.974;23.708;2023-04-26T05:39:57;11.10;;;7.10;;
80209;SDS011;69529;37.974;23.708;2023-04-26T05:42:25;10.70;;;6.70;;
80209;SDS011;69529;37.974;23.708;2023-04-26T05:45:01;10.80;;;5.30;;
80209;SDS011;69529;37.974;23.708;2023-04-26T05:47:25;12.85;;;7.37;;
80209;SDS011;69529;37.974;23.708;2023-04-26T05:49:52;12.53;;;6.60;;
80209;SDS011;69529;37.974;23.708;2023-04-26T05:52:20;9.05;;;5.40;;
80209;SDS011;69529;37.974;23.708;2023-04-26T05:54:48;7.80;;;4.45;;
80209;SDS011;69529;37.974;23.708;2023-04-26T05:57:15;10.58;;;3.92;;
80209;SDS011;69529;37.974;23.708;2023-04-26T05:59:44;5.78;;;3.45;;
80209;SDS011;69529;37.974;23.708;2023-04-26T06:02:18;7.80;;;4.20;;
80209;SDS011;69529;37.974;23.708;2023-04-26T06:04:45;7.10;;;3.72;;
80209;SDS011;69529;37.974;23.708;2023-04-26T06:07:13;7.45;;;3.40;;
80209;SDS011;69529;37.974;23.708;2023-04-26T06:09:42;7.97;;;3.52;;
80209;SDS011;69529;37.974;23.708;2023-04-26T06:12:09;6.42;;;3.20;;
80209;SDS011;69529;37.974;23.708;2023-04-26T06:14:37;7.87;;;3.25;;
80209;SDS011;69529;37.974;23.708;2023-04-26T06:17:05;7.78;;;3.70;;
80209;SDS011;69529;37.974;23.708;2023-04-26T06:19:32;8.58;;;2.95;;
80209;SDS011;69529;37.974;23.708;2023-04-26T06:22:00;8.68;;;3.20;;
80209;SDS011;69529;37.974;23.708;2023-04-26T06:24:28;8.88;;;3.17;;
80209;SDS011;69529;37.974;23.708;2023-04-26T06:26:56;7.92;;;3.00;;
80209;SDS011;69529;37.974;23.708;2023-04-26T06:29:24;9.60;;;3.20;;
80209;SDS011;69529;37.974;23.708;2023-04-26T06:31:51;7.70;;;3.27;;
80209;SDS011;69529;37.974;23.708;2023-04-26T06:34:19;7.80;;;3.15;;
80209;SDS011;69529;37.974;23.708;2023-04-26T06:36:47;5.92;;;2.90;;
80209;SDS011;69529;37.974;23.708;2023-04-26T06:39:14;8.83;;;3.22;;
80209;SDS011;69529;37.974;23.708;2023-04-26T06:41:42;9.58;;;3.05;;
80209;SDS011;69529;37.974;23.708;2023-04-26T06:44:10;6.08;;;2.77;;
80209;SDS011;69529;37.974;23.708;2023-04-26T06:46:37;5.50;;;2.52;;
80209;SDS011;69529;37.974;23.708;2023-04-26T06:49:05;5.60;;;2.90;;
80209;SDS011;69529;37.974;23.708;2023-04-26T06:51:33;8.53;;;2.92;;
80209;SDS011;69529;37.974;23.708;2023-04-26T06:54:01;6.60;;;2.65;;
80209;SDS011;69529;37.974;23.708;2023-04-26T06:56:29;6.12;;;2.47;;
80209;SDS011;69529;37.974;23.708;2023-04-26T06:58:57;6.45;;;2.70;;
80209;SDS011;69529;37.974;23.708;2023-04-26T07:01:26;6.60;;;2.40;;
80209;SDS011;69529;37.974;23.708;2023-04-26T07:03:54;5.78;;;2.72;;
80209;SDS011;69529;37.974;23.708;2023-04-26T07:06:23;3.60;;;2.15;;
80209;SDS011;69529;37.974;23.708;2023-04-26T07:08:51;3.25;;;2.08;;
80209;SDS011;69529;37.974;23.708;2023-04-26T07:11:20;4.50;;;2.10;;
80209;SDS011;69529;37.974;23.708;2023-04-26T07:13:48;4.67;;;2.10;;
80209;SDS011;69529;37.974;23.708;2023-04-26T07:16:16;4.00;;;2.20;;
80209;SDS011;69529;37.974;23.708;2023-04-26T07:18:43;4.67;;;1.90;;
80209;SDS011;69529;37.974;23.708;2023-04-26T07:21:13;2.65;;;1.60;;
80209;SDS011;69529;37.974;23.708;2023-04-26T07:23:41;3.05;;;1.60;;
80209;SDS011;69529;37.974;23.708;2023-04-26T07:26:11;2.60;;;1.45;;
80209;SDS011;69529;37.974;23.708;2023-04-26T07:28:39;2.67;;;1.70;;
80209;SDS011;69529;37.974;23.708;2023-04-26T07:31:07;1.67;;;1.42;;
80209;SDS011;69529;37.974;23.708;2023-04-26T07:33:35;2.02;;;1.40;;
80209;SDS011;69529;37.974;23.708;2023-04-26T07:36:02;2.17;;;1.37;;
80209;SDS011;69529;37.974;23.708;2023-04-26T07:38:30;3.05;;;1.60;;
80209;SDS011;69529;37.974;23.708;2023-04-26T07:40:58;4.00;;;1.40;;
80209;SDS011;69529;37.974;23.708;2023-04-26T07:43:29;3.85;;;1.65;;
80209;SDS011;69529;37.974;23.708;2023-04-26T07:46:00;1.57;;;1.22;;
80209;SDS011;69529;37.974;23.708;2023-04-26T07:48:28;2.30;;;1.20;;
80209;SDS011;69529;37.974;23.708;2023-04-26T07:50:56;1.35;;;1.20;;
80209;SDS011;69529;37.974;23.708;2023-04-26T07:53:25;2.80;;;1.20;;
80209;SDS011;69529;37.974;23.708;2023-04-26T07:55:52;1.72;;;1.10;;
80209;SDS011;69529;37.974;23.708;2023-04-26T07:58:20;1.17;;;1.00;;
80209;SDS011;69529;37.974;23.708;2023-04-26T08:00:48;2.15;;;1.20;;
80209;SDS011;69529;37.974;23.708;2023-04-26T08:03:18;1.00;;;1.00;;
80209;SDS011;69529;37.974;23.708;2023-04-26T08:05:46;2.50;;;1.00;;
80209;SDS011;69529;37.974;23.708;2023-04-26T08:08:13;2.30;;;1.05;;
80209;SDS011;69529;37.974;23.708;2023-04-26T08:10:41;1.25;;;1.00;;
80209;SDS011;69529;37.974;23.708;2023-04-26T08:13:09;1.50;;;1.15;;
80209;SDS011;69529;37.974;23.708;2023-04-26T08:15:36;3.65;;;1.70;;
80209;SDS011;69529;37.974;23.708;2023-04-26T08:18:04;3.37;;;1.75;;
80209;SDS011;69529;37.974;23.708;2023-04-26T08:20:32;4.47;;;2.00;;
80209;SDS011;69529;37.974;23.708;2023-04-26T08:22:59;1.98;;;1.77;;
80209;SDS011;69529;37.974;23.708;2023-04-26T08:25:27;3.27;;;1.62;;
80209;SDS011;69529;37.974;23.708;2023-04-26T08:27:55;2.80;;;1.70;;
80209;SDS011;69529;37.974;23.708;2023-04-26T08:30:22;1.90;;;1.70;;
80209;SDS011;69529;37.974;23.708;2023-04-26T08:32:50;2.35;;;1.60;;
80209;SDS011;69529;37.974;23.708;2023-04-26T08:35:18;3.58;;;1.80;;
80209;SDS011;69529;37.974;23.708;2023-04-26T08:37:47;1.85;;;1.50;;
80209;SDS011;69529;37.974;23.708;2023-04-26T08:40:14;2.17;;;1.40;;
80209;SDS011;69529;37.974;23.708;2023-04-26T08:42:45;1.90;;;1.70;;
80209;SDS011;69529;37.974;23.708;2023-04-26T08:45:13;3.55;;;1.62;;
80209;SDS011;69529;37.974;23.708;2023-04-26T08:50:19;1.60;;;1.50;;
80209;SDS011;69529;37.974;23.708;2023-04-26T08:52:49;1.60;;;1.40;;
80209;SDS011;69529;37.974;23.708;2023-04-26T08:55:18;1.40;;;1.30;;
80209;SDS011;69529;37.974;23.708;2023-04-26T08:57:47;3.05;;;1.60;;
80209;SDS011;69529;37.974;23.708;2023-04-26T09:00:16;4.25;;;1.60;;
80209;SDS011;69529;37.974;23.708;2023-04-26T09:02:45;1.92;;;1.40;;
80209;SDS011;69529;37.974;23.708;2023-04-26T09:05:14;2.65;;;1.60;;
80209;SDS011;69529;37.974;23.708;2023-04-26T09:07:45;1.57;;;1.47;;
80209;SDS011;69529;37.974;23.708;2023-04-26T09:10:16;2.92;;;1.22;;
80209;SDS011;69529;37.974;23.708;2023-04-26T09:12:50;2.50;;;1.62;;
80209;SDS011;69529;37.974;23.708;2023-04-26T09:15:24;3.55;;;1.40;;
80209;SDS011;69529;37.974;23.708;2023-04-26T09:17:49;4.33;;;1.30;;
80209;SDS011;69529;37.974;23.708;2023-04-26T09:20:17;2.10;;;1.47;;
80209;SDS011;69529;37.974;23.708;2023-04-26T09:22:52;1.77;;;1.40;;
80209;SDS011;69529;37.974;23.708;2023-04-26T09:25:18;1.60;;;1.47;;
80209;SDS011;69529;37.974;23.708;2023-04-26T09:27:47;2.17;;;1.30;;
80209;SDS011;69529;37.974;23.708;2023-04-26T09:30:16;1.30;;;1.12;;
80209;SDS011;69529;37.974;23.708;2023-04-26T09:37:55;2.20;;;1.30;;
80209;SDS011;69529;37.974;23.708;2023-04-26T09:40:25;2.25;;;1.10;;
80209;SDS011;69529;37.974;23.708;2023-04-26T09:43:00;2.22;;;1.47;;
80209;SDS011;69529;37.974;23.708;2023-04-26T09:45:26;1.95;;;1.30;;
80209;SDS011;69529;37.974;23.708;2023-04-26T09:48:10;1.35;;;1.07;;
80209;SDS011;69529;37.974;23.708;2023-04-26T09:50:41;1.42;;;1.20;;
80209;SDS011;69529;37.974;23.708;2023-04-26T09:53:46;1.43;;;1.23;;
80209;SDS011;69529;37.974;23.708;2023-04-26T09:55:54;1.50;;;1.22;;
80209;SDS011;69529;37.974;23.708;2023-04-26T09:58:24;1.02;;;1.02;;
80209;SDS011;69529;37.974;23.708;2023-04-26T10:00:52;1.35;;;1.10;;
80209;SDS011;69529;37.974;23.708;2023-04-26T10:03:21;1.37;;;1.27;;
80209;SDS011;69529;37.974;23.708;2023-04-26T10:05:49;1.45;;;1.35;;
80209;SDS011;69529;37.974;23.708;2023-04-26T10:08:17;1.35;;;1.25;;
80209;SDS011;69529;37.974;23.708;2023-04-26T10:10:45;2.12;;;1.40;;
80209;SDS011;69529;37.974;23.708;2023-04-26T10:13:18;1.80;;;1.60;;
80209;SDS011;69529;37.974;23.708;2023-04-26T10:15:48;1.62;;;1.40;;
80209;SDS011;69529;37.974;23.708;2023-04-26T10:18:17;1.87;;;1.40;;
80209;SDS011;69529;37.974;23.708;2023-04-26T10:20:47;1.62;;;1.47;;
80209;SDS011;69529;37.974;23.708;2023-04-26T10:23:20;1.82;;;1.40;;
80209;SDS011;69529;37.974;23.708;2023-04-26T10:25:52;3.83;;;1.40;;
80209;SDS011;69529;37.974;23.708;2023-04-26T10:31:12;3.02;;;1.30;;
80209;SDS011;69529;37.974;23.708;2023-04-26T10:33:41;1.62;;;1.40;;
80209;SDS011;69529;37.974;23.708;2023-04-26T10:36:10;3.05;;;1.30;;
80209;SDS011;69529;37.974;23.708;2023-04-26T10:38:40;3.12;;;1.30;;
80209;SDS011;69529;37.974;23.708;2023-04-26T10:41:28;1.30;;;1.20;;
80209;SDS011;69529;37.974;23.708;2023-04-26T10:43:58;2.25;;;1.40;;
80209;SDS011;69529;37.974;23.708;2023-04-26T10:46:40;3.20;;;1.20;;
80209;SDS011;69529;37.974;23.708;2023-04-26T10:49:14;1.47;;;1.22;;
80209;SDS011;69529;37.974;23.708;2023-04-26T10:54:50;2.10;;;1.20;;
80209;SDS011;69529;37.974;23.708;2023-04-26T10:57:23;1.55;;;1.35;;
80209;SDS011;69529;37.974;23.708;2023-04-26T11:03:01;1.57;;;1.27;;
80209;SDS011;69529;37.974;23.708;2023-04-26T11:08:18;1.72;;;1.37;;
80209;SDS011;69529;37.974;23.708;2023-04-26T11:10:51;1.72;;;1.22;;
80209;SDS011;69529;37.974;23.708;2023-04-26T11:13:29;2.17;;;1.42;;
80209;SDS011;69529;37.974;23.708;2023-04-26T11:15:58;1.80;;;1.30;;
80209;SDS011;69529;37.974;23.708;2023-04-26T11:18:30;1.52;;;1.27;;
80209;SDS011;69529;37.974;23.708;2023-04-26T11:20:59;1.77;;;1.40;;
80209;SDS011;69529;37.974;23.708;2023-04-26T11:23:27;4.17;;;1.40;;
80209;SDS011;69529;37.974;23.708;2023-04-26T11:25:57;2.02;;;1.45;;
80209;SDS011;69529;37.974;23.708;2023-04-26T11:28:27;3.90;;;1.30;;
80209;SDS011;69529;37.974;23.708;2023-04-26T11:30:59;2.17;;;1.55;;
80209;SDS011;69529;37.974;23.708;2023-04-26T11:33:27;2.02;;;1.60;;
80209;SDS011;69529;37.974;23.708;2023-04-26T11:35:56;3.60;;;1.52;;
80209;SDS011;69529;37.974;23.708;2023-04-26T11:38:24;2.42;;;1.47;;
80209;SDS011;69529;37.974;23.708;2023-04-26T11:40:59;3.17;;;1.60;;
80209;SDS011;69529;37.974;23.708;2023-04-26T11:46:07;3.22;;;1.45;;
80209;SDS011;69529;37.974;23.708;2023-04-26T11:48:35;2.90;;;1.62;;
80209;SDS011;69529;37.974;23.708;2023-04-26T11:51:04;4.60;;;1.37;;
80209;SDS011;69529;37.974;23.708;2023-04-26T11:53:39;2.35;;;1.67;;
80209;SDS011;69529;37.974;23.708;2023-04-26T11:56:12;3.27;;;1.57;;
80209;SDS011;69529;37.974;23.708;2023-04-26T11:58:45;4.75;;;1.70;;
80209;SDS011;69529;37.974;23.708;2023-04-26T12:01:21;2.95;;;1.50;;
80209;SDS011;69529;37.974;23.708;2023-04-26T12:03:55;1.90;;;1.32;;
80209;SDS011;69529;37.974;23.708;2023-04-26T12:06:40;1.50;;;1.20;;
80209;SDS011;69529;37.974;23.708;2023-04-26T12:09:11;2.45;;;1.60;;
80209;SDS011;69529;37.974;23.708;2023-04-26T12:11:39;1.60;;;1.50;;
80209;SDS011;69529;37.974;23.708;2023-04-26T12:14:06;1.67;;;1.30;;
80209;SDS011;69529;37.974;23.708;2023-04-26T12:16:35;2.77;;;1.47;;
80209;SDS011;69529;37.974;23.708;2023-04-26T12:19:06;4.78;;;1.30;;
80209;SDS011;69529;37.974;23.708;2023-04-26T12:21:42;1.98;;;1.45;;
80209;SDS011;69529;37.974;23.708;2023-04-26T12:24:22;1.40;;;1.30;;
80209;SDS011;69529;37.974;23.708;2023-04-26T12:26:52;1.85;;;1.20;;
80209;SDS011;69529;37.974;23.708;2023-04-26T12:29:19;2.35;;;1.07;;
80209;SDS011;69529;37.974;23.708;2023-04-26T12:31:47;2.58;;;1.60;;
80209;SDS011;69529;37.974;23.708;2023-04-26T12:34:15;1.75;;;1.60;;
80209;SDS011;69529;37.974;23.708;2023-04-26T12:36:43;2.70;;;1.95;;
80209;SDS011;69529;37.974;23.708;2023-04-26T12:39:11;5.20;;;2.12;;
80209;SDS011;69529;37.974;23.708;2023-04-26T12:41:40;3.47;;;2.75;;
80209;SDS011;69529;37.974;23.708;2023-04-26T12:44:09;3.33;;;2.60;;
80209;SDS011;69529;37.974;23.708;2023-04-26T12:46:39;4.05;;;2.72;;
80209;SDS011;69529;37.974;23.708;2023-04-26T12:49:06;4.25;;;2.60;;
80209;SDS011;69529;37.974;23.708;2023-04-26T12:51:34;2.98;;;2.40;;
80209;SDS011;69529;37.974;23.708;2023-04-26T12:54:02;2.42;;;2.17;;
80209;SDS011;69529;37.974;23.708;2023-04-26T12:56:29;3.05;;;2.15;;
80209;SDS011;69529;37.974;23.708;2023-04-26T12:58:58;2.58;;;2.02;;
80209;SDS011;69529;37.974;23.708;2023-04-26T13:01:25;3.08;;;2.22;;
80209;SDS011;69529;37.974;23.708;2023-04-26T13:03:53;2.52;;;2.05;;
80209;SDS011;69529;37.974;23.708;2023-04-26T13:06:24;4.90;;;1.83;;
80209;SDS011;69529;37.974;23.708;2023-04-26T13:08:53;3.02;;;2.02;;
80209;SDS011;69529;37.974;23.708;2023-04-26T13:11:21;2.85;;;1.80;;
80209;SDS011;69529;37.974;23.708;2023-04-26T13:13:48;1.67;;;1.57;;
80209;SDS011;69529;37.974;23.708;2023-04-26T13:16:16;3.08;;;1.70;;
80209;SDS011;69529;37.974;23.708;2023-04-26T13:18:44;3.58;;;1.65;;
80209;SDS011;69529;37.974;23.708;2023-04-26T13:21:11;2.08;;;1.40;;
80209;SDS011;69529;37.974;23.708;2023-04-26T13:23:39;3.25;;;1.37;;
80209;SDS011;69529;37.974;23.708;2023-04-26T13:26:08;3.17;;;1.50;;
80209;SDS011;69529;37.974;23.708;2023-04-26T13:28:36;1.90;;;1.00;;
80209;SDS011;69529;37.974;23.708;2023-04-26T13:31:03;1.30;;;1.10;;
80209;SDS011;69529;37.974;23.708;2023-04-26T13:33:31;1.65;;;1.32;;
80209;SDS011;69529;37.974;23.708;2023-04-26T13:35:59;1.00;;;1.00;;
80209;SDS011;69529;37.974;23.708;2023-04-26T13:38:26;1.65;;;1.10;;
80209;SDS011;69529;37.974;23.708;2023-04-26T13:40:54;1.35;;;1.05;;
80209;SDS011;69529;37.974;23.708;2023-04-26T13:43:22;1.62;;;0.98;;
80209;SDS011;69529;37.974;23.708;2023-04-26T13:45:50;2.00;;;1.40;;
80209;SDS011;69529;37.974;23.708;2023-04-26T13:48:17;2.62;;;1.02;;
80209;SDS011;69529;37.974;23.708;2023-04-26T13:50:46;2.58;;;1.20;;
80209;SDS011;69529;37.974;23.708;2023-04-26T13:53:14;1.72;;;1.30;;
80209;SDS011;69529;37.974;23.708;2023-04-26T13:55:41;1.90;;;1.05;;
80209;SDS011;69529;37.974;23.708;2023-04-26T13:58:09;1.25;;;0.95;;
80209;SDS011;69529;37.974;23.708;2023-04-26T14:00:37;1.55;;;1.10;;
80209;SDS011;69529;37.974;23.708;2023-04-26T14:03:04;1.12;;;1.02;;
80209;SDS011;69529;37.974;23.708;2023-04-26T14:05:32;2.20;;;1.00;;
80209;SDS011;69529;37.974;23.708;2023-04-26T14:08:00;3.10;;;1.02;;
80209;SDS011;69529;37.974;23.708;2023-04-26T14:10:28;1.07;;;0.98;;
80209;SDS011;69529;37.974;23.708;2023-04-26T14:12:55;1.42;;;1.07;;
80209;SDS011;69529;37.974;23.708;2023-04-26T14:15:23;1.80;;;1.17;;
80209;SDS011;69529;37.974;23.708;2023-04-26T14:17:50;1.77;;;0.85;;
80209;SDS011;69529;37.974;23.708;2023-04-26T14:20:18;1.57;;;0.90;;
80209;SDS011;69529;37.974;23.708;2023-04-26T14:22:46;1.37;;;0.88;;
80209;SDS011;69529;37.974;23.708;2023-04-26T14:25:15;1.32;;;0.93;;
80209;SDS011;69529;37.974;23.708;2023-04-26T14:27:42;2.05;;;0.85;;
80209;SDS011;69529;37.974;23.708;2023-04-26T14:30:10;1.05;;;0.90;;
80209;SDS011;69529;37.974;23.708;2023-04-26T14:32:38;1.32;;;1.07;;
80209;SDS011;69529;37.974;23.708;2023-04-26T14:35:06;2.00;;;1.05;;
80209;SDS011;69529;37.974;23.708;2023-04-26T14:37:34;1.37;;;0.90;;
80209;SDS011;69529;37.974;23.708;2023-04-26T14:40:01;2.90;;;1.10;;
80209;SDS011;69529;37.974;23.708;2023-04-26T14:42:30;2.80;;;0.82;;
80209;SDS011;69529;37.974;23.708;2023-04-26T14:44:58;1.77;;;1.00;;
80209;SDS011;69529;37.974;23.708;2023-04-26T14:47:26;1.70;;;0.88;;
80209;SDS011;69529;37.974;23.708;2023-04-26T14:49:55;3.05;;;1.12;;
80209;SDS011;69529;37.974;23.708;2023-04-26T14:52:23;1.92;;;1.00;;
80209;SDS011;69529;37.974;23.708;2023-04-26T14:54:52;1.00;;;0.90;;
80209;SDS011;69529;37.974;23.708;2023-04-26T14:57:21;2.52;;;0.98;;
80209;SDS011;69529;37.974;23.708;2023-04-26T14:59:48;2.33;;;0.90;;
80209;SDS011;69529;37.974;23.708;2023-04-26T15:02:16;2.37;;;0.90;;
80209;SDS011;69529;37.974;23.708;2023-04-26T15:04:44;2.75;;;0.90;;
80209;SDS011;69529;37.974;23.708;2023-04-26T15:07:11;1.47;;;0.90;;
80209;SDS011;69529;37.974;23.708;2023-04-26T15:09:40;2.58;;;0.90;;